sensor_id;sensor_type;location;lat;lon;timestamp;P1;durP1;ratioP1;P2;durP2;ratioP2
15082;SDS011;7640;53.116;6.878;2023-02-28T00:01:42;11.27;;;5.13;;
15082;SDS011;7640;53.116;6.878;2023-02-28T00:04:11;10.17;;;5.17;;
15082;SDS011;7640;53.116;6.878;2023-02-28T00:06:39;9.60;;;5.00;;
15082;SDS011;7640;53.116;6.878;2023-02-28T00:09:09;11.03;;;5.33;;
15082;SDS011;7640;53.116;6.878;2023-02-28T00:11:38;9.70;;;5.27;;
15082;SDS011;7640;53.116;6.878;2023-02-28T00:14:06;8.27;;;4.83;;
15082;SDS011;7640;53.116;6.878;2023-02-28T00:16:34;13.67;;;4.83;;
15082;SDS011;7640;53.116;6.878;2023-02-28T00:19:03;7.30;;;4.77;;
15082;SDS011;7640;53.116;6.878;2023-02-28T00:21:31;7.67;;;5.43;;
15082;SDS011;7640;53.116;6.878;2023-02-28T00:24:00;9.13;;;4.90;;
15082;SDS011;7640;53.116;6.878;2023-02-28T00:26:30;10.20;;;5.93;;
15082;SDS011;7640;53.116;6.878;2023-02-28T00:28:58;9.90;;;5.53;;
15082;SDS011;7640;53.116;6.878;2023-02-28T00:31:27;8.43;;;5.27;;
15082;SDS011;7640;53.116;6.878;2023-02-28T00:33:56;12.17;;;5.50;;
15082;SDS011;7640;53.116;6.878;2023-02-28T00:36:24;8.33;;;5.47;;
15082;SDS011;7640;53.116;6.878;2023-02-28T00:38:53;10.97;;;5.63;;
15082;SDS011;7640;53.116;6.878;2023-02-28T00:41:21;8.73;;;6.30;;
15082;SDS011;7640;53.116;6.878;2023-02-28T00:43:51;10.87;;;6.10;;
15082;SDS011;7640;53.116;6.878;2023-02-28T00:46:20;11.13;;;7.37;;
15082;SDS011;7640;53.116;6.878;2023-02-28T00:48:48;10.50;;;7.00;;
15082;SDS011;7640;53.116;6.878;2023-02-28T00:51:17;8.27;;;6.43;;
15082;SDS011;7640;53.116;6.878;2023-02-28T00:53:45;11.83;;;6.43;;
15082;SDS011;7640;53.116;6.878;2023-02-28T00:56:13;9.17;;;6.27;;
15082;SDS011;7640;53.116;6.878;2023-02-28T00:58:42;10.10;;;6.73;;
15082;SDS011;7640;53.116;6.878;2023-02-28T01:01:12;9.40;;;6.07;;
15082;SDS011;7640;53.116;6.878;2023-02-28T01:03:41;10.67;;;6.80;;
15082;SDS011;7640;53.116;6.878;2023-02-28T01:06:09;13.37;;;7.07;;
15082;SDS011;7640;53.116;6.878;2023-02-28T01:08:38;11.23;;;6.97;;
15082;SDS011;7640;53.116;6.878;2023-02-28T01:11:07;13.30;;;6.77;;
15082;SDS011;7640;53.116;6.878;2023-02-28T01:13:37;11.77;;;6.30;;
15082;SDS011;7640;53.116;6.878;2023-02-28T01:16:06;9.53;;;7.07;;
15082;SDS011;7640;53.116;6.878;2023-02-28T01:18:36;9.30;;;7.17;;
15082;SDS011;7640;53.116;6.878;2023-02-28T01:21:05;13.03;;;6.40;;
15082;SDS011;7640;53.116;6.878;2023-02-28T01:23:34;9.87;;;6.50;;
15082;SDS011;7640;53.116;6.878;2023-02-28T01:26:03;10.97;;;7.43;;
15082;SDS011;7640;53.116;6.878;2023-02-28T01:28:33;13.10;;;6.97;;
15082;SDS011;7640;53.116;6.878;2023-02-28T01:31:02;12.57;;;7.23;;
15082;SDS011;7640;53.116;6.878;2023-02-28T01:33:30;10.97;;;7.03;;
15082;SDS011;7640;53.116;6.878;2023-02-28T01:36:01;10.23;;;7.23;;
15082;SDS011;7640;53.116;6.878;2023-02-28T01:38:32;11.73;;;6.80;;
15082;SDS011;7640;53.116;6.878;2023-02-28T01:41:01;12.77;;;6.57;;
15082;SDS011;7640;53.116;6.878;2023-02-28T01:43:31;12.73;;;7.13;;
15082;SDS011;7640;53.116;6.878;2023-02-28T01:46:20;11.63;;;7.00;;
15082;SDS011;7640;53.116;6.878;2023-02-28T01:48:50;11.43;;;7.10;;
15082;SDS011;7640;53.116;6.878;2023-02-28T01:51:25;13.77;;;7.43;;
15082;SDS011;7640;53.116;6.878;2023-02-28T01:53:58;13.27;;;7.90;;
15082;SDS011;7640;53.116;6.878;2023-02-28T01:56:31;11.30;;;7.60;;
15082;SDS011;7640;53.116;6.878;2023-02-28T01:59:04;16.07;;;7.47;;
15082;SDS011;7640;53.116;6.878;2023-02-28T02:01:32;10.83;;;7.37;;
15082;SDS011;7640;53.116;6.878;2023-02-28T02:04:01;11.33;;;7.77;;
15082;SDS011;7640;53.116;6.878;2023-02-28T02:06:34;12.37;;;8.03;;
15082;SDS011;7640;53.116;6.878;2023-02-28T02:09:06;15.00;;;8.67;;
15082;SDS011;7640;53.116;6.878;2023-02-28T02:11:35;14.07;;;8.43;;
15082;SDS011;7640;53.116;6.878;2023-02-28T02:14:22;11.70;;;7.73;;
15082;SDS011;7640;53.116;6.878;2023-02-28T02:17:11;14.37;;;8.63;;
15082;SDS011;7640;53.116;6.878;2023-02-28T02:20:03;17.80;;;9.17;;
15082;SDS011;7640;53.116;6.878;2023-02-28T02:26:28;13.07;;;8.47;;
15082;SDS011;7640;53.116;6.878;2023-02-28T02:29:32;13.87;;;9.17;;
15082;SDS011;7640;53.116;6.878;2023-02-28T02:32:28;14.03;;;8.43;;
15082;SDS011;7640;53.116;6.878;2023-02-28T02:35:27;12.13;;;8.03;;
15082;SDS011;7640;53.116;6.878;2023-02-28T02:38:00;14.80;;;8.97;;
15082;SDS011;7640;53.116;6.878;2023-02-28T02:40:38;15.97;;;9.30;;
15082;SDS011;7640;53.116;6.878;2023-02-28T02:43:13;15.03;;;8.43;;
15082;SDS011;7640;53.116;6.878;2023-02-28T02:45:47;12.97;;;8.80;;
15082;SDS011;7640;53.116;6.878;2023-02-28T02:48:23;14.73;;;9.27;;
15082;SDS011;7640;53.116;6.878;2023-02-28T02:50:58;15.17;;;9.57;;
15082;SDS011;7640;53.116;6.878;2023-02-28T02:53:31;13.47;;;8.60;;
15082;SDS011;7640;53.116;6.878;2023-02-28T02:56:03;15.83;;;9.30;;
15082;SDS011;7640;53.116;6.878;2023-02-28T02:58:35;16.00;;;9.80;;
15082;SDS011;7640;53.116;6.878;2023-02-28T03:01:10;13.00;;;8.93;;
15082;SDS011;7640;53.116;6.878;2023-02-28T03:03:44;14.00;;;8.83;;
15082;SDS011;7640;53.116;6.878;2023-02-28T03:06:14;14.60;;;9.47;;
15082;SDS011;7640;53.116;6.878;2023-02-28T03:08:43;15.63;;;9.70;;
15082;SDS011;7640;53.116;6.878;2023-02-28T03:11:12;17.23;;;9.87;;
15082;SDS011;7640;53.116;6.878;2023-02-28T03:13:44;16.20;;;10.00;;
15082;SDS011;7640;53.116;6.878;2023-02-28T03:16:25;16.73;;;9.33;;
15082;SDS011;7640;53.116;6.878;2023-02-28T03:19:04;14.20;;;9.93;;
15082;SDS011;7640;53.116;6.878;2023-02-28T03:22:01;13.83;;;9.23;;
15082;SDS011;7640;53.116;6.878;2023-02-28T03:24:45;12.27;;;9.23;;
15082;SDS011;7640;53.116;6.878;2023-02-28T03:27:23;16.97;;;9.70;;
15082;SDS011;7640;53.116;6.878;2023-02-28T03:29:58;11.73;;;8.50;;
15082;SDS011;7640;53.116;6.878;2023-02-28T03:32:33;14.50;;;8.40;;
15082;SDS011;7640;53.116;6.878;2023-02-28T03:35:08;14.80;;;9.03;;
15082;SDS011;7640;53.116;6.878;2023-02-28T03:37:50;12.73;;;8.13;;
15082;SDS011;7640;53.116;6.878;2023-02-28T03:40:27;12.27;;;8.40;;
15082;SDS011;7640;53.116;6.878;2023-02-28T03:43:01;13.50;;;7.50;;
15082;SDS011;7640;53.116;6.878;2023-02-28T03:45:36;13.47;;;7.33;;
15082;SDS011;7640;53.116;6.878;2023-02-28T03:48:08;13.23;;;8.07;;
15082;SDS011;7640;53.116;6.878;2023-02-28T03:50:41;14.40;;;7.83;;
15082;SDS011;7640;53.116;6.878;2023-02-28T03:53:16;13.07;;;7.80;;
15082;SDS011;7640;53.116;6.878;2023-02-28T03:55:51;14.13;;;8.70;;
15082;SDS011;7640;53.116;6.878;2023-02-28T03:58:26;18.40;;;9.73;;
15082;SDS011;7640;53.116;6.878;2023-02-28T04:00:59;18.53;;;9.30;;
15082;SDS011;7640;53.116;6.878;2023-02-28T04:03:34;24.23;;;10.13;;
15082;SDS011;7640;53.116;6.878;2023-02-28T04:06:04;20.80;;;10.17;;
15082;SDS011;7640;53.116;6.878;2023-02-28T04:08:36;19.77;;;9.83;;
15082;SDS011;7640;53.116;6.878;2023-02-28T04:11:06;16.57;;;8.63;;
15082;SDS011;7640;53.116;6.878;2023-02-28T04:13:46;15.40;;;9.17;;
15082;SDS011;7640;53.116;6.878;2023-02-28T04:16:14;14.20;;;8.67;;
15082;SDS011;7640;53.116;6.878;2023-02-28T04:19:00;15.93;;;9.40;;
15082;SDS011;7640;53.116;6.878;2023-02-28T04:21:31;15.40;;;8.63;;
15082;SDS011;7640;53.116;6.878;2023-02-28T04:24:04;14.37;;;8.77;;
15082;SDS011;7640;53.116;6.878;2023-02-28T04:26:34;17.43;;;8.97;;
15082;SDS011;7640;53.116;6.878;2023-02-28T04:29:04;16.17;;;8.40;;
15082;SDS011;7640;53.116;6.878;2023-02-28T04:31:33;16.23;;;8.70;;
15082;SDS011;7640;53.116;6.878;2023-02-28T04:34:02;13.17;;;8.07;;
15082;SDS011;7640;53.116;6.878;2023-02-28T04:36:30;17.27;;;9.40;;
15082;SDS011;7640;53.116;6.878;2023-02-28T04:38:59;11.90;;;8.00;;
15082;SDS011;7640;53.116;6.878;2023-02-28T04:41:29;14.63;;;8.80;;
15082;SDS011;7640;53.116;6.878;2023-02-28T04:43:58;17.27;;;9.73;;
15082;SDS011;7640;53.116;6.878;2023-02-28T04:46:27;17.60;;;9.63;;
15082;SDS011;7640;53.116;6.878;2023-02-28T04:48:57;14.53;;;9.03;;
15082;SDS011;7640;53.116;6.878;2023-02-28T04:51:26;19.27;;;10.17;;
15082;SDS011;7640;53.116;6.878;2023-02-28T04:53:55;19.33;;;10.33;;
15082;SDS011;7640;53.116;6.878;2023-02-28T04:56:23;17.23;;;11.03;;
15082;SDS011;7640;53.116;6.878;2023-02-28T04:58:53;19.00;;;10.77;;
15082;SDS011;7640;53.116;6.878;2023-02-28T05:01:23;19.50;;;11.23;;
15082;SDS011;7640;53.116;6.878;2023-02-28T05:03:55;21.73;;;11.50;;
15082;SDS011;7640;53.116;6.878;2023-02-28T05:06:26;17.83;;;10.07;;
15082;SDS011;7640;53.116;6.878;2023-02-28T05:08:57;19.80;;;11.53;;
15082;SDS011;7640;53.116;6.878;2023-02-28T05:11:27;21.10;;;12.47;;
15082;SDS011;7640;53.116;6.878;2023-02-28T05:14:03;21.30;;;12.03;;
15082;SDS011;7640;53.116;6.878;2023-02-28T05:16:33;21.03;;;11.67;;
15082;SDS011;7640;53.116;6.878;2023-02-28T05:19:02;22.13;;;12.67;;
15082;SDS011;7640;53.116;6.878;2023-02-28T05:21:31;19.07;;;12.43;;
15082;SDS011;7640;53.116;6.878;2023-02-28T05:24:03;20.87;;;12.40;;
15082;SDS011;7640;53.116;6.878;2023-02-28T05:26:34;21.70;;;12.40;;
15082;SDS011;7640;53.116;6.878;2023-02-28T05:29:05;20.83;;;12.53;;
15082;SDS011;7640;53.116;6.878;2023-02-28T05:31:34;23.20;;;13.30;;
15082;SDS011;7640;53.116;6.878;2023-02-28T05:34:03;21.63;;;12.43;;
15082;SDS011;7640;53.116;6.878;2023-02-28T05:36:31;24.30;;;12.87;;
15082;SDS011;7640;53.116;6.878;2023-02-28T05:39:00;22.43;;;12.87;;
15082;SDS011;7640;53.116;6.878;2023-02-28T05:41:29;23.13;;;13.20;;
15082;SDS011;7640;53.116;6.878;2023-02-28T05:43:58;27.20;;;14.30;;
15082;SDS011;7640;53.116;6.878;2023-02-28T05:46:28;27.27;;;14.03;;
15082;SDS011;7640;53.116;6.878;2023-02-28T05:48:56;25.13;;;14.27;;
15082;SDS011;7640;53.116;6.878;2023-02-28T05:51:26;20.07;;;12.50;;
15082;SDS011;7640;53.116;6.878;2023-02-28T05:53:58;28.60;;;14.37;;
15082;SDS011;7640;53.116;6.878;2023-02-28T05:56:27;23.00;;;13.00;;
15082;SDS011;7640;53.116;6.878;2023-02-28T05:58:56;23.40;;;13.87;;
15082;SDS011;7640;53.116;6.878;2023-02-28T06:01:32;24.77;;;13.47;;
15082;SDS011;7640;53.116;6.878;2023-02-28T06:04:03;23.93;;;13.93;;
15082;SDS011;7640;53.116;6.878;2023-02-28T06:06:37;20.20;;;12.73;;
15082;SDS011;7640;53.116;6.878;2023-02-28T06:09:06;22.73;;;12.80;;
15082;SDS011;7640;53.116;6.878;2023-02-28T06:11:35;24.30;;;13.10;;
15082;SDS011;7640;53.116;6.878;2023-02-28T06:14:05;25.07;;;13.40;;
15082;SDS011;7640;53.116;6.878;2023-02-28T06:16:36;24.27;;;13.37;;
15082;SDS011;7640;53.116;6.878;2023-02-28T06:19:04;25.27;;;14.60;;
15082;SDS011;7640;53.116;6.878;2023-02-28T06:21:33;25.57;;;14.83;;
15082;SDS011;7640;53.116;6.878;2023-02-28T06:24:02;25.33;;;14.03;;
15082;SDS011;7640;53.116;6.878;2023-02-28T06:26:31;20.13;;;12.73;;
15082;SDS011;7640;53.116;6.878;2023-02-28T06:29:00;28.63;;;14.23;;
15082;SDS011;7640;53.116;6.878;2023-02-28T06:31:29;26.27;;;15.60;;
15082;SDS011;7640;53.116;6.878;2023-02-28T06:33:59;28.43;;;14.87;;
15082;SDS011;7640;53.116;6.878;2023-02-28T06:36:28;24.63;;;14.87;;
15082;SDS011;7640;53.116;6.878;2023-02-28T06:38:56;27.20;;;16.07;;
15082;SDS011;7640;53.116;6.878;2023-02-28T06:41:25;27.43;;;14.33;;
15082;SDS011;7640;53.116;6.878;2023-02-28T06:43:56;28.10;;;13.93;;
15082;SDS011;7640;53.116;6.878;2023-02-28T06:46:25;25.70;;;13.80;;
15082;SDS011;7640;53.116;6.878;2023-02-28T06:48:53;26.50;;;13.63;;
15082;SDS011;7640;53.116;6.878;2023-02-28T06:51:23;26.97;;;14.33;;
15082;SDS011;7640;53.116;6.878;2023-02-28T06:53:53;25.20;;;15.20;;
15082;SDS011;7640;53.116;6.878;2023-02-28T06:56:22;26.00;;;13.57;;
15082;SDS011;7640;53.116;6.878;2023-02-28T06:58:50;25.73;;;14.57;;
15082;SDS011;7640;53.116;6.878;2023-02-28T07:01:20;25.70;;;14.30;;
15082;SDS011;7640;53.116;6.878;2023-02-28T07:03:50;24.70;;;14.40;;
15082;SDS011;7640;53.116;6.878;2023-02-28T07:06:19;27.07;;;14.83;;
15082;SDS011;7640;53.116;6.878;2023-02-28T07:08:51;25.40;;;14.30;;
15082;SDS011;7640;53.116;6.878;2023-02-28T07:11:20;29.03;;;15.07;;
15082;SDS011;7640;53.116;6.878;2023-02-28T07:13:51;26.67;;;15.13;;
15082;SDS011;7640;53.116;6.878;2023-02-28T07:16:20;27.23;;;15.23;;
15082;SDS011;7640;53.116;6.878;2023-02-28T07:18:52;30.07;;;15.20;;
15082;SDS011;7640;53.116;6.878;2023-02-28T07:21:21;24.10;;;13.97;;
15082;SDS011;7640;53.116;6.878;2023-02-28T07:23:51;26.47;;;14.97;;
15082;SDS011;7640;53.116;6.878;2023-02-28T07:26:20;33.27;;;15.63;;
15082;SDS011;7640;53.116;6.878;2023-02-28T07:28:49;27.50;;;14.63;;
15082;SDS011;7640;53.116;6.878;2023-02-28T07:31:19;24.87;;;15.50;;
15082;SDS011;7640;53.116;6.878;2023-02-28T07:33:47;31.07;;;16.23;;
15082;SDS011;7640;53.116;6.878;2023-02-28T07:36:16;29.97;;;17.37;;
15082;SDS011;7640;53.116;6.878;2023-02-28T07:38:46;29.93;;;17.10;;
15082;SDS011;7640;53.116;6.878;2023-02-28T07:41:18;29.13;;;16.90;;
15082;SDS011;7640;53.116;6.878;2023-02-28T07:43:52;25.53;;;16.13;;
15082;SDS011;7640;53.116;6.878;2023-02-28T07:46:21;27.47;;;16.17;;
15082;SDS011;7640;53.116;6.878;2023-02-28T07:48:50;30.73;;;16.67;;
15082;SDS011;7640;53.116;6.878;2023-02-28T07:51:21;28.27;;;16.30;;
15082;SDS011;7640;53.116;6.878;2023-02-28T07:53:50;28.77;;;16.07;;
15082;SDS011;7640;53.116;6.878;2023-02-28T07:56:20;26.73;;;16.60;;
15082;SDS011;7640;53.116;6.878;2023-02-28T07:58:49;31.47;;;17.43;;
15082;SDS011;7640;53.116;6.878;2023-02-28T08:01:19;32.23;;;16.17;;
15082;SDS011;7640;53.116;6.878;2023-02-28T08:03:48;28.70;;;15.87;;
15082;SDS011;7640;53.116;6.878;2023-02-28T08:06:18;24.83;;;16.27;;
15082;SDS011;7640;53.116;6.878;2023-02-28T08:08:48;26.83;;;15.97;;
15082;SDS011;7640;53.116;6.878;2023-02-28T08:11:19;27.27;;;15.97;;
15082;SDS011;7640;53.116;6.878;2023-02-28T08:13:47;25.67;;;15.93;;
15082;SDS011;7640;53.116;6.878;2023-02-28T08:16:16;25.97;;;14.80;;
15082;SDS011;7640;53.116;6.878;2023-02-28T08:18:48;27.13;;;15.67;;
15082;SDS011;7640;53.116;6.878;2023-02-28T08:21:17;30.53;;;15.43;;
15082;SDS011;7640;53.116;6.878;2023-02-28T08:23:46;24.00;;;14.07;;
15082;SDS011;7640;53.116;6.878;2023-02-28T08:26:15;23.80;;;14.47;;
15082;SDS011;7640;53.116;6.878;2023-02-28T08:28:46;23.53;;;14.43;;
15082;SDS011;7640;53.116;6.878;2023-02-28T08:31:15;26.10;;;15.33;;
15082;SDS011;7640;53.116;6.878;2023-02-28T08:33:45;26.43;;;15.53;;
15082;SDS011;7640;53.116;6.878;2023-02-28T08:36:17;26.30;;;14.53;;
15082;SDS011;7640;53.116;6.878;2023-02-28T08:38:46;24.03;;;13.87;;
15082;SDS011;7640;53.116;6.878;2023-02-28T08:41:14;23.07;;;14.13;;
15082;SDS011;7640;53.116;6.878;2023-02-28T08:43:43;27.37;;;16.23;;
15082;SDS011;7640;53.116;6.878;2023-02-28T08:46:13;24.87;;;15.20;;
15082;SDS011;7640;53.116;6.878;2023-02-28T08:48:41;24.97;;;14.57;;
15082;SDS011;7640;53.116;6.878;2023-02-28T08:51:11;26.00;;;14.87;;
15082;SDS011;7640;53.116;6.878;2023-02-28T08:53:42;26.73;;;15.87;;
15082;SDS011;7640;53.116;6.878;2023-02-28T08:56:11;27.17;;;15.57;;
15082;SDS011;7640;53.116;6.878;2023-02-28T08:58:42;25.83;;;14.80;;
15082;SDS011;7640;53.116;6.878;2023-02-28T09:01:15;29.37;;;16.13;;
15082;SDS011;7640;53.116;6.878;2023-02-28T09:03:46;26.00;;;15.83;;
15082;SDS011;7640;53.116;6.878;2023-02-28T09:06:16;28.30;;;15.83;;
15082;SDS011;7640;53.116;6.878;2023-02-28T09:08:47;25.10;;;15.30;;
15082;SDS011;7640;53.116;6.878;2023-02-28T09:11:16;26.37;;;15.97;;
15082;SDS011;7640;53.116;6.878;2023-02-28T09:13:45;29.00;;;16.60;;
15082;SDS011;7640;53.116;6.878;2023-02-28T09:16:15;24.63;;;15.57;;
15082;SDS011;7640;53.116;6.878;2023-02-28T09:18:45;27.33;;;16.50;;
15082;SDS011;7640;53.116;6.878;2023-02-28T09:21:14;23.30;;;15.87;;
15082;SDS011;7640;53.116;6.878;2023-02-28T09:23:44;23.80;;;14.73;;
15082;SDS011;7640;53.116;6.878;2023-02-28T09:26:15;24.13;;;14.87;;
15082;SDS011;7640;53.116;6.878;2023-02-28T09:28:45;25.37;;;14.57;;
15082;SDS011;7640;53.116;6.878;2023-02-28T09:31:16;23.17;;;14.90;;
15082;SDS011;7640;53.116;6.878;2023-02-28T09:33:48;23.37;;;14.73;;
15082;SDS011;7640;53.116;6.878;2023-02-28T09:36:17;24.43;;;15.37;;
15082;SDS011;7640;53.116;6.878;2023-02-28T09:38:48;23.33;;;15.03;;
15082;SDS011;7640;53.116;6.878;2023-02-28T09:41:20;28.30;;;14.53;;
15082;SDS011;7640;53.116;6.878;2023-02-28T09:43:52;22.30;;;14.77;;
15082;SDS011;7640;53.116;6.878;2023-02-28T09:46:27;21.57;;;13.50;;
15082;SDS011;7640;53.116;6.878;2023-02-28T09:49:02;26.07;;;14.57;;
15082;SDS011;7640;53.116;6.878;2023-02-28T09:51:37;22.60;;;14.07;;
15082;SDS011;7640;53.116;6.878;2023-02-28T09:54:17;24.93;;;15.30;;
15082;SDS011;7640;53.116;6.878;2023-02-28T09:56:50;20.53;;;14.37;;
15082;SDS011;7640;53.116;6.878;2023-02-28T09:59:31;25.47;;;14.63;;
15082;SDS011;7640;53.116;6.878;2023-02-28T10:05:17;23.20;;;14.17;;
15082;SDS011;7640;53.116;6.878;2023-02-28T10:07:51;19.67;;;14.07;;
15082;SDS011;7640;53.116;6.878;2023-02-28T10:10:33;22.23;;;14.87;;
15082;SDS011;7640;53.116;6.878;2023-02-28T10:13:12;24.00;;;14.23;;
15082;SDS011;7640;53.116;6.878;2023-02-28T10:15:48;22.83;;;14.27;;
15082;SDS011;7640;53.116;6.878;2023-02-28T10:18:22;25.67;;;15.10;;
15082;SDS011;7640;53.116;6.878;2023-02-28T10:20:55;22.17;;;14.73;;
15082;SDS011;7640;53.116;6.878;2023-02-28T10:23:25;24.50;;;14.47;;
15082;SDS011;7640;53.116;6.878;2023-02-28T10:25:58;23.03;;;13.50;;
15082;SDS011;7640;53.116;6.878;2023-02-28T10:28:29;19.23;;;12.40;;
15082;SDS011;7640;53.116;6.878;2023-02-28T10:30:58;18.47;;;12.10;;
15082;SDS011;7640;53.116;6.878;2023-02-28T10:33:29;20.00;;;12.57;;
15082;SDS011;7640;53.116;6.878;2023-02-28T10:36:02;17.70;;;11.97;;
15082;SDS011;7640;53.116;6.878;2023-02-28T10:38:33;18.07;;;12.53;;
15082;SDS011;7640;53.116;6.878;2023-02-28T10:41:05;16.57;;;12.23;;
15082;SDS011;7640;53.116;6.878;2023-02-28T10:43:35;16.07;;;12.63;;
15082;SDS011;7640;53.116;6.878;2023-02-28T10:46:09;17.90;;;12.77;;
15082;SDS011;7640;53.116;6.878;2023-02-28T10:49:02;16.17;;;12.27;;
15082;SDS011;7640;53.116;6.878;2023-02-28T10:51:34;19.43;;;12.67;;
15082;SDS011;7640;53.116;6.878;2023-02-28T10:54:04;19.07;;;11.50;;
15082;SDS011;7640;53.116;6.878;2023-02-28T10:56:33;21.37;;;12.53;;
15082;SDS011;7640;53.116;6.878;2023-02-28T10:59:02;16.60;;;12.80;;
15082;SDS011;7640;53.116;6.878;2023-02-28T11:01:53;15.57;;;11.03;;
15082;SDS011;7640;53.116;6.878;2023-02-28T11:04:33;15.43;;;10.47;;
15082;SDS011;7640;53.116;6.878;2023-02-28T11:07:10;17.70;;;10.63;;
15082;SDS011;7640;53.116;6.878;2023-02-28T11:09:50;13.33;;;9.67;;
15082;SDS011;7640;53.116;6.878;2023-02-28T11:12:21;13.87;;;9.93;;
15082;SDS011;7640;53.116;6.878;2023-02-28T11:14:56;11.30;;;9.07;;
15082;SDS011;7640;53.116;6.878;2023-02-28T11:17:28;11.43;;;9.30;;
15082;SDS011;7640;53.116;6.878;2023-02-28T11:20:00;14.77;;;9.50;;
15082;SDS011;7640;53.116;6.878;2023-02-28T11:22:35;13.37;;;9.53;;
15082;SDS011;7640;53.116;6.878;2023-02-28T11:25:07;15.13;;;8.97;;
15082;SDS011;7640;53.116;6.878;2023-02-28T11:27:47;11.03;;;9.03;;
15082;SDS011;7640;53.116;6.878;2023-02-28T11:30:30;11.37;;;8.97;;
15082;SDS011;7640;53.116;6.878;2023-02-28T11:33:14;13.60;;;9.57;;
15082;SDS011;7640;53.116;6.878;2023-02-28T11:35:51;13.33;;;9.30;;
15082;SDS011;7640;53.116;6.878;2023-02-28T11:38:26;16.03;;;10.30;;
15082;SDS011;7640;53.116;6.878;2023-02-28T11:41:02;13.63;;;8.73;;
15082;SDS011;7640;53.116;6.878;2023-02-28T11:43:52;13.60;;;10.20;;
15082;SDS011;7640;53.116;6.878;2023-02-28T11:46:38;15.17;;;10.10;;
15082;SDS011;7640;53.116;6.878;2023-02-28T11:49:20;15.47;;;10.57;;
15082;SDS011;7640;53.116;6.878;2023-02-28T11:52:05;12.07;;;9.33;;
15082;SDS011;7640;53.116;6.878;2023-02-28T11:54:55;13.40;;;9.13;;
15082;SDS011;7640;53.116;6.878;2023-02-28T11:57:47;11.43;;;8.93;;
15082;SDS011;7640;53.116;6.878;2023-02-28T12:00:51;12.30;;;8.93;;
15082;SDS011;7640;53.116;6.878;2023-02-28T12:03:43;12.37;;;8.73;;
15082;SDS011;7640;53.116;6.878;2023-02-28T12:06:25;12.50;;;8.43;;
15082;SDS011;7640;53.116;6.878;2023-02-28T12:09:04;12.60;;;9.33;;
15082;SDS011;7640;53.116;6.878;2023-02-28T12:11:48;12.00;;;8.77;;
15082;SDS011;7640;53.116;6.878;2023-02-28T12:14:44;11.33;;;8.40;;
15082;SDS011;7640;53.116;6.878;2023-02-28T12:17:32;13.87;;;8.50;;
15082;SDS011;7640;53.116;6.878;2023-02-28T12:20:17;12.00;;;8.53;;
15082;SDS011;7640;53.116;6.878;2023-02-28T12:22:59;12.53;;;9.07;;
15082;SDS011;7640;53.116;6.878;2023-02-28T12:25:51;15.40;;;10.57;;
15082;SDS011;7640;53.116;6.878;2023-02-28T12:28:31;11.73;;;7.90;;
15082;SDS011;7640;53.116;6.878;2023-02-28T12:31:05;8.70;;;7.13;;
15082;SDS011;7640;53.116;6.878;2023-02-28T12:33:39;9.93;;;7.77;;
15082;SDS011;7640;53.116;6.878;2023-02-28T12:36:13;9.53;;;7.73;;
15082;SDS011;7640;53.116;6.878;2023-02-28T12:38:48;9.67;;;6.90;;
15082;SDS011;7640;53.116;6.878;2023-02-28T12:41:26;9.03;;;6.70;;
15082;SDS011;7640;53.116;6.878;2023-02-28T12:44:03;10.37;;;6.77;;
15082;SDS011;7640;53.116;6.878;2023-02-28T12:46:40;10.47;;;7.50;;
15082;SDS011;7640;53.116;6.878;2023-02-28T12:49:12;9.00;;;7.30;;
15082;SDS011;7640;53.116;6.878;2023-02-28T12:51:44;9.20;;;6.73;;
15082;SDS011;7640;53.116;6.878;2023-02-28T12:54:16;9.63;;;6.70;;
15082;SDS011;7640;53.116;6.878;2023-02-28T12:56:56;8.23;;;6.90;;
15082;SDS011;7640;53.116;6.878;2023-02-28T12:59:34;7.70;;;6.47;;
15082;SDS011;7640;53.116;6.878;2023-02-28T13:05:26;7.77;;;6.77;;
15082;SDS011;7640;53.116;6.878;2023-02-28T13:08:32;8.37;;;6.07;;
15082;SDS011;7640;53.116;6.878;2023-02-28T13:11:40;8.77;;;6.60;;
15082;SDS011;7640;53.116;6.878;2023-02-28T13:14:23;8.73;;;6.33;;
15082;SDS011;7640;53.116;6.878;2023-02-28T13:17:01;9.07;;;7.00;;
15082;SDS011;7640;53.116;6.878;2023-02-28T13:19:39;7.53;;;6.33;;
15082;SDS011;7640;53.116;6.878;2023-02-28T13:22:18;8.30;;;6.40;;
15082;SDS011;7640;53.116;6.878;2023-02-28T13:24:49;8.07;;;6.40;;
15082;SDS011;7640;53.116;6.878;2023-02-28T13:27:23;8.97;;;6.40;;
15082;SDS011;7640;53.116;6.878;2023-02-28T13:33:32;8.47;;;6.57;;
15082;SDS011;7640;53.116;6.878;2023-02-28T13:36:25;7.60;;;5.90;;
15082;SDS011;7640;53.116;6.878;2023-02-28T13:38:56;8.07;;;6.70;;
15082;SDS011;7640;53.116;6.878;2023-02-28T13:41:40;7.60;;;6.60;;
15082;SDS011;7640;53.116;6.878;2023-02-28T13:44:13;6.83;;;5.97;;
15082;SDS011;7640;53.116;6.878;2023-02-28T13:49:52;9.33;;;6.67;;
15082;SDS011;7640;53.116;6.878;2023-02-28T13:52:21;7.07;;;6.23;;
15082;SDS011;7640;53.116;6.878;2023-02-28T13:57:57;7.17;;;6.10;;
15082;SDS011;7640;53.116;6.878;2023-02-28T14:00:55;6.50;;;5.90;;
15082;SDS011;7640;53.116;6.878;2023-02-28T14:03:50;6.60;;;6.00;;
15082;SDS011;7640;53.116;6.878;2023-02-28T14:06:46;8.13;;;6.60;;
15082;SDS011;7640;53.116;6.878;2023-02-28T14:09:19;8.23;;;6.90;;
15082;SDS011;7640;53.116;6.878;2023-02-28T14:11:52;7.57;;;6.77;;
15082;SDS011;7640;53.116;6.878;2023-02-28T14:17:24;8.43;;;7.33;;
15082;SDS011;7640;53.116;6.878;2023-02-28T14:19:55;8.23;;;7.30;;
15082;SDS011;7640;53.116;6.878;2023-02-28T14:25:22;8.97;;;7.50;;
15082;SDS011;7640;53.116;6.878;2023-02-28T14:28:02;7.83;;;7.03;;
15082;SDS011;7640;53.116;6.878;2023-02-28T14:30:43;9.80;;;7.57;;
15082;SDS011;7640;53.116;6.878;2023-02-28T14:33:35;8.23;;;7.00;;
15082;SDS011;7640;53.116;6.878;2023-02-28T14:36:23;8.83;;;7.63;;
15082;SDS011;7640;53.116;6.878;2023-02-28T14:38:56;12.37;;;8.27;;
15082;SDS011;7640;53.116;6.878;2023-02-28T14:41:29;9.40;;;8.40;;
15082;SDS011;7640;53.116;6.878;2023-02-28T14:44:02;9.43;;;8.10;;
15082;SDS011;7640;53.116;6.878;2023-02-28T14:46:41;9.30;;;8.23;;
15082;SDS011;7640;53.116;6.878;2023-02-28T14:49:13;9.90;;;8.13;;
15082;SDS011;7640;53.116;6.878;2023-02-28T14:51:49;10.73;;;8.87;;
15082;SDS011;7640;53.116;6.878;2023-02-28T14:54:29;11.90;;;8.60;;
15082;SDS011;7640;53.116;6.878;2023-02-28T14:56:58;10.87;;;8.43;;
15082;SDS011;7640;53.116;6.878;2023-02-28T14:59:27;9.47;;;7.20;;
15082;SDS011;7640;53.116;6.878;2023-02-28T15:02:14;8.10;;;7.30;;
15082;SDS011;7640;53.116;6.878;2023-02-28T15:04:55;9.60;;;7.47;;
15082;SDS011;7640;53.116;6.878;2023-02-28T15:07:26;8.67;;;7.77;;
15082;SDS011;7640;53.116;6.878;2023-02-28T15:12:49;10.77;;;8.63;;
15082;SDS011;7640;53.116;6.878;2023-02-28T15:15:23;11.43;;;9.03;;
15082;SDS011;7640;53.116;6.878;2023-02-28T15:18:13;10.30;;;9.30;;
15082;SDS011;7640;53.116;6.878;2023-02-28T15:20:53;11.83;;;8.77;;
15082;SDS011;7640;53.116;6.878;2023-02-28T15:23:26;10.37;;;9.37;;
15082;SDS011;7640;53.116;6.878;2023-02-28T15:25:55;11.87;;;9.43;;
15082;SDS011;7640;53.116;6.878;2023-02-28T15:28:25;10.13;;;8.83;;
15082;SDS011;7640;53.116;6.878;2023-02-28T15:30:55;12.67;;;9.57;;
15082;SDS011;7640;53.116;6.878;2023-02-28T15:33:27;10.83;;;9.73;;
15082;SDS011;7640;53.116;6.878;2023-02-28T15:36:05;11.57;;;9.17;;
15082;SDS011;7640;53.116;6.878;2023-02-28T15:38:41;10.53;;;9.43;;
15082;SDS011;7640;53.116;6.878;2023-02-28T15:41:21;12.00;;;9.20;;
15082;SDS011;7640;53.116;6.878;2023-02-28T15:47:00;9.50;;;8.50;;
15082;SDS011;7640;53.116;6.878;2023-02-28T15:49:35;10.67;;;9.57;;
15082;SDS011;7640;53.116;6.878;2023-02-28T15:52:12;11.20;;;8.77;;
15082;SDS011;7640;53.116;6.878;2023-02-28T15:54:45;12.40;;;9.47;;